createdAt,value
2023-05-13T00:01:38.623Z,101150.65
2023-05-13T00:06:40.534Z,101147.58
2023-05-13T00:11:42.264Z,101148.40
2023-05-13T00:16:43.909Z,101152.24
2023-05-13T00:21:45.661Z,101156.52
2023-05-13T00:26:47.253Z,101151.99
2023-05-13T00:31:48.754Z,101150.22
2023-05-13T00:36:50.292Z,101152.56
2023-05-13T00:41:51.809Z,101156.64
2023-05-13T00:46:53.961Z,101159.98
2023-05-13T00:51:55.724Z,101156.59
2023-05-13T00:56:58.337Z,101161.77
2023-05-13T01:02:10.824Z,101163.02
2023-05-13T01:07:21.636Z,101166.14
2023-05-13T01:12:39.847Z,101173.70
2023-05-13T01:17:49.781Z,101172.20
2023-05-13T01:22:51.396Z,101170.15
2023-05-13T01:27:53.865Z,101172.89
2023-05-13T01:32:56.463Z,101173.41
2023-05-13T01:37:59.475Z,101177.58
2023-05-13T01:43:01.672Z,101180.90
2023-05-13T01:48:03.460Z,101179.89
2023-05-13T01:53:05.140Z,101186.42
2023-05-13T01:58:06.719Z,101188.66
2023-05-13T02:03:08.273Z,101183.50
2023-05-13T02:08:09.925Z,101181.09
2023-05-13T02:13:12.257Z,101174.91
2023-05-13T02:18:14.131Z,101176.98
2023-05-13T02:23:15.905Z,101181.14
2023-05-13T02:28:17.798Z,101186.45
2023-05-13T02:33:19.445Z,101181.69
2023-05-13T02:38:21.025Z,101178.10
2023-05-13T02:43:24.792Z,101176.57
2023-05-13T02:48:26.341Z,101171.10
2023-05-13T02:53:28.254Z,101170.92
2023-05-13T02:58:29.768Z,101173.36
2023-05-13T03:03:31.460Z,101180.04
2023-05-13T03:08:33.077Z,101182.95
2023-05-13T03:13:34.711Z,101177.79
2023-05-13T03:18:36.328Z,101183.48
2023-05-13T03:23:37.860Z,101182.91
2023-05-13T03:28:39.443Z,101179.20
2023-05-13T03:33:40.996Z,101173.18
2023-05-13T03:38:42.513Z,101169.57
2023-05-13T03:43:44.443Z,101174.31
2023-05-13T03:48:45.956Z,101178.85
2023-05-13T03:53:47.896Z,101186.59
2023-05-13T03:58:49.400Z,101194.61
2023-05-13T04:03:54.505Z,101201.41
2023-05-13T04:08:56.579Z,101202.31
2023-05-13T04:14:01.491Z,101200.58
2023-05-13T04:19:03.097Z,101203.78
2023-05-13T04:24:06.345Z,101211.10
2023-05-13T04:29:08.506Z,101219.73
2023-05-13T04:34:10.073Z,101222.25
2023-05-13T04:39:11.744Z,101218.23
2023-05-13T04:44:13.285Z,101218.65
2023-05-13T04:49:14.831Z,101223.39
2023-05-13T04:54:16.938Z,101221.81
2023-05-13T04:59:18.726Z,101226.46
2023-05-13T05:04:20.415Z,101223.08
2023-05-13T05:09:21.983Z,101224.70
2023-05-13T05:14:23.548Z,101235.95
2023-05-13T05:19:25.093Z,101249.08
2023-05-13T05:24:26.711Z,101246.60
2023-05-13T05:29:28.223Z,101241.05
2023-05-13T05:34:29.733Z,101236.81
2023-05-13T05:39:31.241Z,101227.72
2023-05-13T05:44:32.785Z,101223.79
2023-05-13T05:49:34.337Z,101218.04
2023-05-13T05:54:35.973Z,101218.66
2023-05-13T05:59:37.660Z,101227.88
2023-05-13T06:04:39.450Z,101223.88
2023-05-13T06:09:41.164Z,101225.91
2023-05-13T06:14:42.657Z,101227.14
2023-05-13T06:19:44.153Z,101226.55
2023-05-13T06:24:45.661Z,101222.77
2023-05-13T06:29:47.211Z,101218.69
2023-05-13T06:34:49.569Z,101214.21
2023-05-13T06:39:51.449Z,101217.85
2023-05-13T06:44:53.042Z,101218.83
2023-05-13T06:49:54.630Z,101222.27
2023-05-13T06:54:56.273Z,101216.16
2023-05-13T06:59:57.764Z,101217.61
2023-05-13T07:04:59.268Z,101212.11
2023-05-13T07:10:01.319Z,101212.23
2023-05-13T07:15:02.945Z,101213.00
2023-05-13T07:20:05.364Z,101206.67
2023-05-13T07:25:07.902Z,101210.86
2023-05-13T07:30:11.643Z,101211.15
2023-05-13T07:35:13.399Z,101211.61
2023-05-13T07:40:15.357Z,101206.77
2023-05-13T07:45:16.882Z,101203.19
2023-05-13T07:50:18.439Z,101201.70
2023-05-13T07:55:20.576Z,101195.08
2023-05-13T08:00:29.121Z,101193.59
2023-05-13T08:05:31.019Z,101189.37
2023-05-13T08:10:32.508Z,101188.47
2023-05-13T08:15:34.171Z,101183.58
2023-05-13T08:20:36.050Z,101174.33
2023-05-13T08:25:37.717Z,101172.14
2023-05-13T08:30:42.196Z,101169.00
2023-05-13T08:35:44.895Z,101172.28
2023-05-13T08:40:46.651Z,101169.54
2023-05-13T08:45:50.685Z,101172.35
2023-05-13T08:50:52.629Z,101174.26
2023-05-13T08:55:55.061Z,101172.25
2023-05-13T09:00:58.035Z,101166.81
2023-05-13T09:06:03.435Z,101161.08
2023-05-13T09:11:04.993Z,101155.46
2023-05-13T09:16:07.212Z,101151.98
2023-05-13T09:21:25.819Z,101151.98
2023-05-13T09:26:29.192Z,101154.54
2023-05-13T09:31:34.081Z,101152.41
2023-05-13T09:36:35.986Z,101149.54
2023-05-13T09:41:37.554Z,101149.58
2023-05-13T09:46:39.240Z,101144.79
2023-05-13T09:51:44.820Z,101141.27
2023-05-13T09:56:46.873Z,101141.09
2023-05-13T10:01:48.596Z,101129.17
2023-05-13T10:06:50.742Z,101125.02
2023-05-13T10:11:53.896Z,101122.28
2023-05-13T10:16:57.711Z,101123.04
2023-05-13T10:21:59.392Z,101119.23
2023-05-13T10:27:03.123Z,101117.29
2023-05-13T10:32:07.653Z,101113.01
2023-05-13T10:37:48.104Z,101117.85
2023-05-13T10:43:14.253Z,101118.73
2023-05-13T10:48:17.260Z,101114.21
2023-05-13T10:53:23.580Z,101107.19
2023-05-13T10:58:33.950Z,101101.77
2023-05-13T11:03:35.755Z,101104.04
2023-05-13T11:08:42.817Z,101097.19
2023-05-13T11:13:44.695Z,101095.42
2023-05-13T11:18:47.050Z,101091.28
2023-05-13T11:24:03.869Z,101085.08
2023-05-13T11:29:06.572Z,101093.81
2023-05-13T11:34:10.755Z,101094.65
2023-05-13T11:39:14.893Z,101090.33
2023-05-13T11:44:22.138Z,101089.07
2023-05-13T11:49:40.728Z,101086.05
2023-05-13T11:54:49.217Z,101093.13
2023-05-13T12:00:05.013Z,101095.40
2023-05-13T12:05:08.872Z,101088.67
2023-05-13T12:10:10.955Z,101081.91
2023-05-13T12:15:20.968Z,101076.70
2023-05-13T12:20:24.614Z,101075.04
2023-05-13T12:25:35.981Z,101063.23
2023-05-13T12:30:46.605Z,101064.47
2023-05-13T12:35:50.532Z,101063.09
2023-05-13T12:40:53.210Z,101073.84
2023-05-13T12:45:54.971Z,101078.30
2023-05-13T12:50:56.662Z,101075.78
2023-05-13T12:55:58.278Z,101083.01
2023-05-13T13:01:07.635Z,101073.48
2023-05-13T13:06:10.440Z,101073.09
2023-05-13T13:11:18.305Z,101065.23
2023-05-13T13:16:20.017Z,101059.22
2023-05-13T13:21:21.528Z,101049.09
2023-05-13T13:26:23.469Z,101050.05
2023-05-13T13:31:25.049Z,101047.81
2023-05-13T13:36:26.569Z,101043.80
2023-05-13T13:41:28.046Z,101042.19
2023-05-13T13:46:29.695Z,101040.06
2023-05-13T13:51:32.031Z,101040.62
2023-05-13T13:56:36.569Z,101038.77
2023-05-13T14:01:40.316Z,101026.05
2023-05-13T14:06:42.471Z,101024.38
2023-05-13T14:11:43.991Z,101026.22
2023-05-13T14:16:45.633Z,101025.91
2023-05-13T14:21:47.197Z,101027.31
2023-05-13T14:26:48.858Z,101024.40
2023-05-13T14:31:50.470Z,101018.16
2023-05-13T14:36:52.525Z,101015.73
2023-05-13T14:41:54.085Z,101017.29
2023-05-13T14:46:56.212Z,101014.30
2023-05-13T14:51:57.961Z,101020.22
2023-05-13T14:56:59.474Z,101024.69
2023-05-13T15:02:02.576Z,101025.60
2023-05-13T15:07:05.451Z,101020.16
2023-05-13T15:12:07.986Z,101016.86
2023-05-13T15:17:11.906Z,101017.05
2023-05-13T15:22:13.706Z,101026.02
2023-05-13T15:27:15.668Z,101022.58
2023-05-13T15:32:17.128Z,101021.63
2023-05-13T15:37:18.644Z,101018.20
2023-05-13T15:42:20.553Z,101011.27
2023-05-13T15:47:22.254Z,101011.91
2023-05-13T15:52:23.989Z,101012.20
2023-05-13T15:57:25.612Z,101007.05
2023-05-13T16:02:29.695Z,101002.60
2023-05-13T16:07:31.483Z,100997.33
2023-05-13T16:12:33.239Z,100997.30
2023-05-13T16:17:35.832Z,100996.58
2023-05-13T16:22:38.302Z,100989.81
2023-05-13T16:27:43.135Z,100986.00
2023-05-13T16:32:47.722Z,100988.64
2023-05-13T16:37:50.526Z,100989.63
2023-05-13T16:42:52.609Z,100997.89
2023-05-13T16:47:54.226Z,101017.64
2023-05-13T16:52:56.988Z,101046.34
2023-05-13T16:57:58.572Z,101058.42
2023-05-13T17:03:01.391Z,101064.09
2023-05-13T17:08:04.088Z,101041.61
2023-05-13T17:13:05.703Z,101023.49
2023-05-13T17:18:07.490Z,101022.66
2023-05-13T17:23:13.873Z,101018.33
2023-05-13T17:28:15.460Z,101019.30
2023-05-13T17:33:17.021Z,101029.10
2023-05-13T17:38:18.768Z,101025.30
2023-05-13T17:43:20.287Z,101030.37
2023-05-13T17:48:22.026Z,101032.35
2023-05-13T17:53:23.771Z,101043.17
2023-05-13T17:58:25.342Z,101043.41
2023-05-13T18:03:26.909Z,101040.27
2023-05-13T18:08:28.620Z,101043.85
2023-05-13T18:13:30.256Z,101043.83
2023-05-13T18:18:31.890Z,101051.49
2023-05-13T18:23:33.428Z,101052.22
2023-05-13T18:28:34.898Z,101054.66
2023-05-13T18:33:36.374Z,101059.12
2023-05-13T18:38:38.519Z,101061.41
2023-05-13T18:43:39.999Z,101063.52
2023-05-13T18:48:41.582Z,101060.28
2023-05-13T18:53:43.087Z,101064.02
2023-05-13T18:58:46.757Z,101072.25
2023-05-13T19:03:48.441Z,101071.41
2023-05-13T19:08:50.284Z,101066.46
2023-05-13T19:13:51.938Z,101067.55
2023-05-13T19:18:53.732Z,101064.81
2023-05-13T19:23:55.236Z,101071.58
2023-05-13T19:28:56.745Z,101075.95
2023-05-13T19:33:58.311Z,101077.75
2023-05-13T19:38:59.804Z,101074.51
2023-05-13T19:44:01.572Z,101077.82
2023-05-13T19:49:03.156Z,101079.89
2023-05-13T19:54:06.785Z,101084.63
2023-05-13T19:59:08.751Z,101086.19
2023-05-13T20:04:10.417Z,101085.13
2023-05-13T20:09:12.127Z,101088.15
2023-05-13T20:14:13.650Z,101085.52
2023-05-13T20:19:15.159Z,101092.30
2023-05-13T20:24:16.836Z,101089.96
2023-05-13T20:29:18.322Z,101090.79
2023-05-13T20:34:19.998Z,101089.45
2023-05-13T20:39:21.503Z,101087.17
2023-05-13T20:44:23.754Z,101086.59
2023-05-13T20:49:25.300Z,101082.05
2023-05-13T20:54:26.795Z,101080.15
2023-05-13T20:59:28.350Z,101080.20
2023-05-13T21:04:29.970Z,101076.51
2023-05-13T21:09:31.448Z,101073.77
2023-05-13T21:14:32.981Z,101077.59
2023-05-13T21:19:34.745Z,101072.17
2023-05-13T21:24:36.307Z,101068.45
2023-05-13T21:29:37.838Z,101074.82
2023-05-13T21:34:39.466Z,101072.14
2023-05-13T21:39:42.294Z,101071.33
2023-05-13T21:44:43.785Z,101071.48
2023-05-13T21:49:45.496Z,101071.99
2023-05-13T21:54:46.984Z,101070.14
2023-05-13T21:59:48.481Z,101066.90
2023-05-13T22:04:49.979Z,101069.63
2023-05-13T22:09:51.495Z,101070.48
2023-05-13T22:14:53.358Z,101066.14
2023-05-13T22:19:55.027Z,101069.84
2023-05-13T22:24:59.918Z,101067.06
2023-05-13T22:30:01.432Z,101064.61
2023-05-13T22:35:03.122Z,101067.89
2023-05-13T22:40:05.922Z,101069.41
2023-05-13T22:45:08.319Z,101067.32
2023-05-13T22:50:12.341Z,101072.48
2023-05-13T22:55:14.241Z,101071.91
2023-05-13T23:00:16.703Z,101074.93
2023-05-13T23:05:18.673Z,101076.72
2023-05-13T23:10:20.206Z,101082.00
2023-05-13T23:15:21.787Z,101079.69
2023-05-13T23:20:23.627Z,101082.05
2023-05-13T23:25:25.667Z,101089.14
2023-05-13T23:30:34.033Z,101091.15
2023-05-13T23:35:35.622Z,101082.67
2023-05-13T23:40:37.114Z,101076.10
2023-05-13T23:45:38.677Z,101072.10
2023-05-13T23:50:41.907Z,101064.44
2023-05-13T23:55:43.368Z,101068.27
